createdAt,value
2018-11-21T00:00:18.028Z,66.50
2018-11-21T00:02:47.574Z,65.99
2018-11-21T00:05:17.338Z,64.23
2018-11-21T00:07:46.270Z,64.89
2018-11-21T00:10:15.671Z,66.55
2018-11-21T00:12:48.814Z,67.15
2018-11-21T00:15:37.309Z,67.80
2018-11-21T00:18:25.792Z,66.35
2018-11-21T00:21:14.273Z,67.95
2018-11-21T00:24:02.750Z,66.43
2018-11-21T00:26:51.435Z,66.83
2018-11-21T00:29:39.924Z,67.11
2018-11-21T00:32:28.847Z,67.60
2018-11-21T00:35:17.460Z,66.57
2018-11-21T00:38:05.938Z,66.95
2018-11-21T00:40:54.637Z,66.79
2018-11-21T00:43:43.423Z,66.82
2018-11-21T00:46:32.113Z,65.77
2018-11-21T00:49:21.056Z,66.76
2018-11-21T00:51:50.044Z,65.92
2018-11-21T00:54:38.688Z,66.05
2018-11-21T00:57:27.148Z,65.89
2018-11-21T01:00:15.631Z,66.00
2018-11-21T01:03:04.107Z,66.14
2018-11-21T01:05:52.567Z,67.62
2018-11-21T01:08:41.349Z,65.78
2018-11-21T01:11:10.332Z,66.37
2018-11-21T01:13:39.304Z,64.55
2018-11-21T01:16:08.547Z,64.35
2018-11-21T01:18:37.930Z,63.38
2018-11-21T01:21:09.694Z,65.83
2018-11-21T01:23:39.346Z,65.32
2018-11-21T01:26:08.303Z,65.57
2018-11-21T01:28:37.714Z,65.89
2018-11-21T01:31:06.684Z,64.21
2018-11-21T01:33:36.294Z,64.41
2018-11-21T01:36:24.770Z,65.64
2018-11-21T01:39:32.747Z,65.31
2018-11-21T01:42:21.227Z,65.64
2018-11-21T01:45:09.918Z,65.82
2018-11-21T01:47:58.804Z,66.39
2018-11-21T01:50:47.330Z,66.16
2018-11-21T01:53:36.176Z,64.40
2018-11-21T01:56:25.212Z,64.43
2018-11-21T01:58:54.634Z,66.30
2018-11-21T02:01:24.514Z,65.68
2018-11-21T02:03:53.682Z,66.44
2018-11-21T02:06:23.119Z,66.72
2018-11-21T02:08:52.162Z,66.02
2018-11-21T02:11:21.133Z,67.11
2018-11-21T02:13:50.249Z,66.64
2018-11-21T02:16:19.201Z,65.94
2018-11-21T02:18:48.386Z,65.82
2018-11-21T02:21:17.341Z,65.64
2018-11-21T02:23:46.747Z,64.22
2018-11-21T02:26:15.713Z,64.43
2018-11-21T02:28:45.124Z,65.90
2018-11-21T02:31:14.099Z,64.76
2018-11-21T02:34:02.588Z,64.15
2018-11-21T02:36:51.980Z,64.71
2018-11-21T02:39:21.373Z,65.27
2018-11-21T02:41:50.476Z,64.53
2018-11-21T02:44:19.516Z,66.37
2018-11-21T02:46:48.477Z,65.79
2018-11-21T02:49:37.382Z,65.48
2018-11-21T02:52:25.873Z,65.96
2018-11-21T02:55:14.343Z,65.24
2018-11-21T02:58:03.085Z,65.68
2018-11-21T03:00:51.562Z,66.08
2018-11-21T03:03:40.489Z,65.98
2018-11-21T03:06:09.460Z,65.75
2018-11-21T03:08:38.727Z,64.96
2018-11-21T03:11:07.693Z,63.77
2018-11-21T03:13:36.648Z,66.00
2018-11-21T03:16:25.160Z,67.08
2018-11-21T03:19:13.630Z,67.71
2018-11-21T03:22:02.103Z,67.18
2018-11-21T03:24:50.572Z,66.17
2018-11-21T03:27:39.087Z,64.49
2018-11-21T03:30:27.592Z,65.22
2018-11-21T03:33:16.099Z,65.82
2018-11-21T03:36:05.093Z,66.91
2018-11-21T03:38:34.130Z,67.35
2018-11-21T03:41:03.307Z,65.74
2018-11-21T03:46:00.570Z,63.64
2018-11-21T03:48:49.048Z,64.30
2018-11-21T03:51:38.594Z,64.61
2018-11-21T03:54:27.292Z,65.67
2018-11-21T03:57:15.769Z,63.86
2018-11-21T04:00:04.276Z,66.08
2018-11-21T04:02:52.753Z,66.29
2018-11-21T04:06:00.602Z,66.50
2018-11-21T04:08:49.534Z,65.37
2018-11-21T04:11:38.026Z,62.65
2018-11-21T04:14:26.848Z,63.28
2018-11-21T04:17:15.286Z,65.69
2018-11-21T04:20:04.019Z,64.55
2018-11-21T04:22:52.540Z,63.62
2018-11-21T04:25:41.473Z,63.70
2018-11-21T04:28:29.944Z,62.98
2018-11-21T04:31:19.100Z,64.34
2018-11-21T04:34:07.564Z,61.61
2018-11-21T04:36:56.062Z,65.48
2018-11-21T04:39:44.530Z,62.45
2018-11-21T04:42:33.036Z,64.29
2018-11-21T04:45:21.806Z,64.00
2018-11-21T04:48:10.482Z,64.45
2018-11-21T04:50:58.961Z,65.66
2018-11-21T04:53:47.431Z,65.85
2018-11-21T04:56:35.904Z,67.50
2018-11-21T04:59:24.398Z,65.72
2018-11-21T05:02:13.112Z,66.15
2018-11-21T05:05:01.593Z,66.54
2018-11-21T05:08:09.399Z,65.19
2018-11-21T05:10:58.303Z,66.73
2018-11-21T05:13:47.024Z,65.50
2018-11-21T05:16:35.507Z,64.81
2018-11-21T05:19:24.022Z,66.29
2018-11-21T05:22:12.708Z,65.06
2018-11-21T05:25:01.196Z,66.86
2018-11-21T05:27:49.663Z,67.69
2018-11-21T05:30:38.190Z,66.45
2018-11-21T05:33:27.596Z,66.81
2018-11-21T05:36:16.076Z,67.71
2018-11-21T05:39:09.009Z,66.29
2018-11-21T05:41:57.501Z,65.44
2018-11-21T05:44:46.043Z,66.54
2018-11-21T05:47:34.651Z,66.22
2018-11-21T05:50:23.135Z,67.29
2018-11-21T05:53:11.623Z,67.64
2018-11-21T05:56:00.112Z,68.53
2018-11-21T05:58:48.858Z,67.80
2018-11-21T06:01:18.100Z,69.42
2018-11-21T06:03:47.127Z,68.24
2018-11-21T06:06:35.789Z,68.59
2018-11-21T06:09:24.262Z,68.63
2018-11-21T06:12:12.761Z,67.13
2018-11-21T06:15:01.761Z,65.95
2018-11-21T06:17:30.748Z,68.30
2018-11-21T06:20:00.401Z,68.07
2018-11-21T06:22:48.854Z,68.74
2018-11-21T06:25:38.289Z,68.62
2018-11-21T06:28:07.371Z,68.13
2018-11-21T06:30:36.434Z,66.98
2018-11-21T06:33:06.226Z,66.30
2018-11-21T06:35:54.711Z,67.40
2018-11-21T06:38:43.602Z,68.43
2018-11-21T06:41:12.551Z,68.56
2018-11-21T06:43:41.754Z,68.59
2018-11-21T06:46:30.514Z,69.16
2018-11-21T06:49:19.321Z,68.38
2018-11-21T06:51:48.311Z,67.92
2018-11-21T06:54:17.354Z,67.72
2018-11-21T06:56:46.323Z,68.65
2018-11-21T06:59:15.388Z,68.18
2018-11-21T07:01:44.595Z,68.89
2018-11-21T07:04:13.576Z,68.45
2018-11-21T07:06:42.591Z,69.07
2018-11-21T07:09:31.061Z,69.36
2018-11-21T07:12:19.509Z,69.59
2018-11-21T07:15:08.299Z,68.65
2018-11-21T07:17:56.752Z,69.10
2018-11-21T07:20:45.250Z,69.02
2018-11-21T07:23:33.730Z,68.81
2018-11-21T07:26:22.239Z,68.94
2018-11-21T07:29:10.959Z,70.32
2018-11-21T07:34:47.921Z,69.48
2018-11-21T07:37:37.179Z,70.28
2018-11-21T07:40:09.346Z,70.67
2018-11-21T07:42:57.822Z,70.80
2018-11-21T07:45:46.633Z,70.81
2018-11-21T07:48:27.866Z,71.33
2018-11-21T07:51:16.696Z,69.97
2018-11-21T07:54:05.549Z,71.21
2018-11-21T07:57:34.389Z,70.32
2018-11-21T08:01:02.391Z,71.06
2018-11-21T08:03:52.987Z,70.33
2018-11-21T08:07:00.552Z,71.03
2018-11-21T08:09:57.025Z,68.91
2018-11-21T08:13:04.625Z,70.94
2018-11-21T08:16:12.207Z,72.08
2018-11-21T08:19:20.279Z,72.99
2018-11-21T08:22:27.868Z,71.41
2018-11-21T08:25:35.929Z,69.86
2018-11-21T08:28:45.992Z,68.97
2018-11-21T08:31:31.990Z,69.22
2018-11-21T08:34:20.469Z,70.56
2018-11-21T08:37:28.517Z,70.79
2018-11-21T08:40:17.021Z,71.26
2018-11-21T08:43:06.632Z,70.23
2018-11-21T08:45:35.870Z,71.79
2018-11-21T08:48:24.676Z,70.37
2018-11-21T08:51:13.853Z,70.77
2018-11-21T08:54:02.329Z,71.01
2018-11-21T08:56:51.400Z,71.11
2018-11-21T08:59:20.397Z,68.40
2018-11-21T09:01:49.469Z,71.07
2018-11-21T09:04:18.861Z,70.90
2018-11-21T09:06:48.227Z,71.07
2018-11-21T09:09:17.473Z,69.75
2018-11-21T09:11:46.942Z,70.30
2018-11-21T09:14:35.583Z,69.72
2018-11-21T09:20:19.040Z,71.73
2018-11-21T09:23:08.094Z,70.87
2018-11-21T09:25:37.094Z,71.61
2018-11-21T09:28:06.456Z,71.81
2018-11-21T09:30:35.849Z,71.50
2018-11-21T09:33:05.122Z,70.93
2018-11-21T09:35:34.369Z,71.27
2018-11-21T09:38:03.765Z,70.86
2018-11-21T09:40:32.786Z,70.65
2018-11-21T09:43:01.748Z,67.98
2018-11-21T09:45:31.141Z,69.87
2018-11-21T09:48:00.432Z,71.09
2018-11-21T09:50:30.966Z,70.67
2018-11-21T09:53:00.349Z,72.26
2018-11-21T09:55:29.403Z,71.87
2018-11-21T09:58:17.884Z,70.78
2018-11-21T10:01:45.389Z,70.59
2018-11-21T10:04:34.102Z,70.91
2018-11-21T10:07:23.373Z,71.50
2018-11-21T10:09:52.853Z,70.68
2018-11-21T10:12:21.843Z,71.72
2018-11-21T10:14:50.821Z,72.10
2018-11-21T10:17:19.916Z,73.13
2018-11-21T10:19:49.581Z,71.37
2018-11-21T10:22:18.614Z,72.85
2018-11-21T10:24:47.659Z,70.40
2018-11-21T10:27:16.759Z,71.44
2018-11-21T10:29:45.728Z,72.08
2018-11-21T10:32:14.817Z,72.21
2018-11-21T10:34:43.846Z,70.47
2018-11-21T10:37:13.139Z,70.74
2018-11-21T10:39:42.310Z,72.97
2018-11-21T10:42:30.911Z,71.90
2018-11-21T10:45:19.383Z,72.77
2018-11-21T10:48:08.110Z,71.64
2018-11-21T10:50:56.700Z,72.98
2018-11-21T10:53:45.188Z,72.09
2018-11-21T10:56:34.208Z,71.09
2018-11-21T10:59:22.946Z,69.23
2018-11-21T11:02:30.615Z,70.50
2018-11-21T11:05:26.791Z,72.97
2018-11-21T11:08:34.476Z,69.81
2018-11-21T11:11:42.029Z,71.76
2018-11-21T11:14:49.645Z,69.21
2018-11-21T11:17:59.484Z,71.05
2018-11-21T11:21:04.781Z,71.06
2018-11-21T11:24:02.297Z,71.38
2018-11-21T11:27:09.865Z,71.77
2018-11-21T11:30:17.420Z,69.05
2018-11-21T11:33:25.444Z,69.56
2018-11-21T11:36:33.095Z,70.38
2018-11-21T11:39:40.704Z,70.89
2018-11-21T11:42:48.355Z,71.13
2018-11-21T11:45:55.925Z,72.76
2018-11-21T11:48:59.562Z,71.66
2018-11-21T11:52:07.179Z,70.36
2018-11-21T11:55:14.739Z,70.26
2018-11-21T11:58:22.325Z,71.99
2018-11-21T12:01:29.963Z,71.30
2018-11-21T12:04:37.533Z,70.27
2018-11-21T12:07:45.083Z,68.83
2018-11-21T12:10:52.672Z,71.16
2018-11-21T12:14:00.231Z,70.13
2018-11-21T12:17:07.777Z,69.92
2018-11-21T12:20:15.363Z,70.64
2018-11-21T12:23:22.934Z,70.65
2018-11-21T12:26:17.549Z,69.55
2018-11-21T12:29:25.161Z,71.18
2018-11-21T12:32:23.480Z,71.95
2018-11-21T12:35:31.083Z,70.14
2018-11-21T12:38:38.879Z,66.62
2018-11-21T12:41:46.448Z,67.10
2018-11-21T12:44:54.199Z,67.20
2018-11-21T12:48:01.775Z,70.54
2018-11-21T12:51:09.593Z,71.67
2018-11-21T12:54:17.175Z,70.61
2018-11-21T12:57:24.995Z,69.89
2018-11-21T13:00:32.576Z,70.17
2018-11-21T13:03:40.179Z,69.84
2018-11-21T13:06:47.865Z,71.17
2018-11-21T13:09:56.847Z,70.49
2018-11-21T13:13:03.062Z,71.18
2018-11-21T13:16:10.682Z,71.36
2018-11-21T13:19:18.537Z,71.90
2018-11-21T13:22:26.378Z,71.52
2018-11-21T13:25:33.950Z,71.03
2018-11-21T13:28:42.002Z,70.50
2018-11-21T13:31:49.725Z,70.14
2018-11-21T13:34:57.302Z,67.62
2018-11-21T13:38:05.769Z,71.40
2018-11-21T13:41:13.432Z,71.64
2018-11-21T13:44:20.996Z,70.13
2018-11-21T13:47:28.595Z,71.69
2018-11-21T13:50:36.156Z,71.91
2018-11-21T13:53:33.872Z,72.98
2018-11-21T13:56:22.849Z,73.67
2018-11-21T13:59:11.645Z,73.12
2018-11-21T14:02:00.118Z,72.91
2018-11-21T14:04:48.665Z,72.16
2018-11-21T14:07:37.620Z,73.24
2018-11-21T14:10:26.116Z,70.61
2018-11-21T14:13:15.085Z,72.88
2018-11-21T14:16:03.741Z,71.98
2018-11-21T14:18:52.201Z,73.70
2018-11-21T14:21:40.689Z,73.70
2018-11-21T14:24:29.236Z,73.45
2018-11-21T14:27:17.886Z,73.03
2018-11-21T14:30:10.645Z,73.39
2018-11-21T14:32:59.144Z,72.43
2018-11-21T14:35:47.665Z,75.14
2018-11-21T14:38:36.140Z,72.91
2018-11-21T14:41:24.667Z,74.23
2018-11-21T14:44:13.149Z,74.10
2018-11-21T14:47:02.434Z,74.00
2018-11-21T14:50:15.746Z,73.94
2018-11-21T14:53:04.213Z,73.81
2018-11-21T14:55:52.790Z,73.97
2018-11-21T14:58:41.345Z,73.93
2018-11-21T15:01:29.871Z,74.17
2018-11-21T15:04:18.577Z,74.55
2018-11-21T15:07:07.636Z,73.66
2018-11-21T15:09:56.150Z,73.33
2018-11-21T15:12:44.947Z,74.39
2018-11-21T15:15:34.008Z,74.37
2018-11-21T15:18:22.516Z,73.87
2018-11-21T15:21:16.421Z,74.37
2018-11-21T15:23:59.693Z,73.10
2018-11-21T15:26:48.206Z,72.37
2018-11-21T15:29:36.767Z,71.44
2018-11-21T15:32:25.238Z,72.75
2018-11-21T15:35:13.721Z,73.29
2018-11-21T15:38:02.232Z,72.44
2018-11-21T15:40:51.016Z,71.55
2018-11-21T15:43:39.960Z,70.90
2018-11-21T15:46:28.809Z,71.32
2018-11-21T15:49:17.339Z,70.81
2018-11-21T15:52:05.857Z,72.34
2018-11-21T15:54:54.332Z,73.25
2018-11-21T15:57:42.901Z,73.56
2018-11-21T16:00:33.124Z,73.43
2018-11-21T16:03:23.568Z,71.42
2018-11-21T16:06:10.136Z,73.25
2018-11-21T16:08:58.648Z,69.79
2018-11-21T16:11:47.179Z,71.62
2018-11-21T16:14:35.759Z,72.50
2018-11-21T16:17:24.283Z,71.16
2018-11-21T16:20:14.512Z,71.73
2018-11-21T16:23:03.052Z,73.05
2018-11-21T16:25:51.528Z,72.92
2018-11-21T16:28:40.082Z,73.25
2018-11-21T16:31:28.573Z,73.55
2018-11-21T16:34:17.091Z,72.18
2018-11-21T16:37:05.549Z,72.22
2018-11-21T16:39:54.050Z,72.47
2018-11-21T16:42:42.550Z,71.75
2018-11-21T16:45:32.758Z,72.24
2018-11-21T16:48:21.288Z,73.27
2018-11-21T16:51:09.772Z,72.22
2018-11-21T16:53:58.293Z,72.86
2018-11-21T16:56:46.756Z,73.60
2018-11-21T16:59:35.844Z,73.05
2018-11-21T17:02:24.414Z,72.19
2018-11-21T17:05:14.325Z,72.46
2018-11-21T17:08:02.892Z,74.13
2018-11-21T17:10:51.397Z,73.31
2018-11-21T17:13:39.944Z,72.89
2018-11-21T17:16:28.389Z,70.05
2018-11-21T17:22:11.245Z,70.73
2018-11-21T17:24:59.843Z,70.18
2018-11-21T17:27:48.745Z,72.89
2018-11-21T17:30:37.280Z,73.40
2018-11-21T17:33:45.627Z,73.46
2018-11-21T17:36:33.859Z,73.86
2018-11-21T17:39:22.410Z,73.32
2018-11-21T17:42:10.992Z,73.17
2018-11-21T17:44:59.468Z,73.29
2018-11-21T17:48:07.120Z,73.03
2018-11-21T17:51:14.679Z,72.72
2018-11-21T17:54:04.135Z,75.46
2018-11-21T17:56:52.686Z,74.72
2018-11-21T17:59:41.495Z,75.31
2018-11-21T18:02:30.029Z,77.22
2018-11-21T18:05:20.963Z,76.38
2018-11-21T18:08:09.532Z,75.77
2018-11-21T18:10:58.050Z,76.60
2018-11-21T18:13:46.538Z,76.48
2018-11-21T18:16:35.058Z,77.84
2018-11-21T18:19:24.028Z,76.80
2018-11-21T18:22:12.525Z,77.90
2018-11-21T18:25:01.294Z,77.81
2018-11-21T18:27:49.788Z,75.20
2018-11-21T18:30:38.277Z,77.49
2018-11-21T18:33:26.798Z,76.95
2018-11-21T18:36:15.390Z,77.37
2018-11-21T18:39:05.116Z,77.71
2018-11-21T18:41:57.963Z,76.36
2018-11-21T18:44:42.472Z,76.48
2018-11-21T18:47:31.202Z,77.24
2018-11-21T18:53:27.963Z,76.89
2018-11-21T18:56:47.123Z,76.47
2018-11-21T18:59:58.206Z,76.16
2018-11-21T19:02:47.155Z,74.31
2018-11-21T19:05:35.990Z,74.34
2018-11-21T19:08:26.796Z,74.02
2018-11-21T19:11:15.291Z,74.43
2018-11-21T19:14:03.850Z,75.83
2018-11-21T19:16:53.888Z,72.43
2018-11-21T19:19:42.617Z,74.26
2018-11-21T19:22:32.369Z,75.06
2018-11-21T19:28:15.942Z,74.81
2018-11-21T19:31:05.386Z,73.24
2018-11-21T19:33:55.524Z,74.92
2018-11-21T19:36:47.273Z,74.05
2018-11-21T19:39:34.063Z,72.46
2018-11-21T19:42:23.697Z,74.39
2018-11-21T19:45:32.405Z,74.63
2018-11-21T19:48:22.316Z,75.27
2018-11-21T19:51:11.438Z,74.22
2018-11-21T19:54:01.153Z,73.57
2018-11-21T19:56:50.844Z,73.95
2018-11-21T20:02:34.160Z,73.30
2018-11-21T20:05:22.883Z,74.48
2018-11-21T20:08:12.416Z,75.50
2018-11-21T20:11:00.957Z,73.04
2018-11-21T20:13:49.982Z,74.39
2018-11-21T20:16:38.282Z,74.21
2018-11-21T20:19:27.503Z,72.62
2018-11-21T20:22:19.099Z,74.51
2018-11-21T20:25:10.396Z,74.26
2018-11-21T20:27:58.898Z,72.40
2018-11-21T20:30:47.467Z,72.91
2018-11-21T20:33:36.037Z,74.19
2018-11-21T20:36:24.775Z,75.30
2018-11-21T20:39:14.426Z,75.14
2018-11-21T20:42:03.239Z,75.60
2018-11-21T20:47:46.348Z,75.45
2018-11-21T20:50:34.916Z,75.58
2018-11-21T20:53:23.874Z,75.86
2018-11-21T20:56:13.067Z,75.26
2018-11-21T20:59:02.244Z,75.27
2018-11-21T21:01:50.840Z,76.04
2018-11-21T21:04:39.856Z,75.67
2018-11-21T21:07:28.555Z,75.05
2018-11-21T21:10:19.180Z,73.80
2018-11-21T21:13:08.064Z,72.74
2018-11-21T21:15:56.672Z,73.86
2018-11-21T21:18:45.488Z,74.37
2018-11-21T21:21:34.028Z,75.81
2018-11-21T21:24:22.634Z,76.07
2018-11-21T21:27:30.516Z,74.49
2018-11-21T21:30:23.876Z,73.46
2018-11-21T21:33:12.661Z,74.54
2018-11-21T21:36:02.142Z,72.42
2018-11-21T21:38:50.625Z,73.13
2018-11-21T21:41:39.547Z,73.17
2018-11-21T21:44:28.288Z,74.41
2018-11-21T21:50:26.211Z,74.01
2018-11-21T21:53:15.272Z,71.92
2018-11-21T21:56:04.140Z,74.54
2018-11-21T21:58:53.167Z,73.50
2018-11-21T22:01:42.044Z,74.20
2018-11-21T22:04:30.561Z,74.27
2018-11-21T22:07:19.576Z,74.41
2018-11-21T22:10:09.908Z,73.68
2018-11-21T22:12:58.583Z,72.24
2018-11-21T22:15:47.374Z,70.42
2018-11-21T22:18:36.424Z,72.81
2018-11-21T22:21:25.049Z,72.41
2018-11-21T22:24:13.873Z,73.09
2018-11-21T22:27:02.383Z,73.89
2018-11-21T22:29:51.049Z,73.75
2018-11-21T22:32:58.705Z,72.23
2018-11-21T22:35:47.407Z,72.38
2018-11-21T22:38:36.293Z,70.82
2018-11-21T22:44:19.520Z,73.36
2018-11-21T22:47:08.060Z,71.41
2018-11-21T22:49:56.827Z,71.48
2018-11-21T22:52:45.411Z,74.40
2018-11-21T22:55:33.952Z,74.80
2018-11-21T22:58:22.748Z,73.28
2018-11-21T23:01:11.322Z,75.56
2018-11-21T23:03:59.745Z,71.88
2018-11-21T23:06:29.128Z,71.20
2018-11-21T23:09:17.666Z,73.58
2018-11-21T23:12:06.397Z,74.34
2018-11-21T23:14:55.172Z,73.10
2018-11-21T23:17:43.708Z,74.53
2018-11-21T23:20:32.361Z,74.29
2018-11-21T23:23:21.199Z,73.33
2018-11-21T23:26:09.691Z,74.59
2018-11-21T23:28:58.948Z,76.20
2018-11-21T23:31:47.648Z,74.76
2018-11-21T23:34:36.231Z,76.48
2018-11-21T23:37:25.240Z,75.97
2018-11-21T23:40:15.359Z,75.26
2018-11-21T23:43:23.002Z,76.48
2018-11-21T23:46:11.577Z,77.43
2018-11-21T23:49:00.743Z,77.32
2018-11-21T23:51:49.351Z,75.97
2018-11-21T23:54:37.976Z,76.79
2018-11-21T23:57:26.640Z,75.19
2018-11-21T23:59:56.579Z,74.04
